Time;durP1;ratioP1;P1;durP2;ratioP2;P2;SDS_P1;SDS_P2;PMS_P1;PMS_P2;Temp;Humidity;BMP_temperature;BMP_pressure;BME280_temperature;BME280_humidity;BME280_pressure;Samples;Min_cycle;Max_cycle;Signal;HPM_P1;HPM_P2
2022/01/24 00:00:55;;;;;;;10.30;7.20;;;;;;;0.02;100.00;99800.53;5073794;28;20215;-66
2022/01/24 00:03:22;;;;;;;10.33;7.70;;;;;;;0.03;100.00;99791.84;5073514;28;20228;-66
2022/01/24 00:05:48;;;;;;;10.40;7.73;;;;;;;0.06;100.00;99797.91;5073339;28;20696;-66
2022/01/24 00:08:15;;;;;;;11.63;8.87;;;;;;;0.05;100.00;99790.97;5073705;28;20211;-66
2022/01/24 00:10:44;;;;;;;10.20;7.30;;;;;;;0.02;100.00;99790.97;5073643;28;20216;-66
2022/01/24 00:15:59;;;;;;;10.43;7.47;;;;;;;-0.02;100.00;99784.06;5049039;28;20598;-66
2022/01/24 00:26:37;;;;;;;10.23;7.40;;;;;;;-0.11;100.00;99786.66;5072481;28;20293;-66
2022/01/24 00:26:47;;;;;;;10.00;7.80;;;;;;;-0.17;100.00;99789.25;5073178;28;20222;-66
2022/01/24 00:29:16;;;;;;;11.73;7.87;;;;;;;-0.24;100.00;99785.81;5071259;28;20215;-66
2022/01/24 00:31:44;;;;;;;10.63;7.60;;;;;;;-0.30;100.00;99791.00;5073148;28;20253;-66
2022/01/24 00:34:11;;;;;;;9.80;7.77;;;;;;;-0.37;100.00;99778.88;5073291;28;20252;-66
2022/01/24 00:36:38;;;;;;;10.43;7.20;;;;;;;-0.50;100.00;99777.16;5072970;28;20673;-66
2022/01/24 00:39:06;;;;;;;9.97;7.50;;;;;;;-0.63;100.00;99775.41;5073092;28;20265;-66
2022/01/24 00:41:45;;;;;;;9.60;7.33;;;;;;;-0.73;100.00;99776.25;5072980;28;20225;-66
2022/01/24 00:47:00;;;;;;;9.77;7.40;;;;;;;-0.85;100.00;99768.44;5049441;28;20241;-67
2022/01/24 00:49:46;;;;;;;9.33;7.27;;;;;;;-0.87;100.00;99765.00;5073146;28;20583;-66
2022/01/24 00:54:57;;;;;;;10.97;7.30;;;;;;;-0.90;100.00;99764.97;5072032;28;20218;-66
2022/01/24 00:57:24;;;;;;;10.27;7.20;;;;;;;-0.94;100.00;99760.63;5072774;28;20212;-66
2022/01/24 00:59:50;;;;;;;9.83;7.37;;;;;;;-0.97;100.00;99763.25;5072808;28;20208;-66
2022/01/24 01:02:20;;;;;;;10.70;7.77;;;;;;;-1.08;100.00;99764.94;5072369;28;20223;-66
2022/01/24 01:05:01;;;;;;;10.83;8.07;;;;;;;-1.13;100.00;99777.91;5072494;28;20563;-66
2022/01/24 01:07:35;;;;;;;9.77;7.40;;;;;;;-1.15;100.00;99781.34;5072912;28;20215;-66
2022/01/24 01:18:16;;;;;;;11.50;8.20;;;;;;;-1.15;100.00;99789.13;5072627;28;20240;-66
2022/01/24 01:21:06;;;;;;;11.87;8.77;;;;;;;-1.20;100.00;99786.53;5072619;28;20256;-66
2022/01/24 01:23:36;;;;;;;12.77;8.93;;;;;;;-1.16;100.00;99792.59;5072485;28;20676;-66
2022/01/24 01:26:06;;;;;;;10.17;7.73;;;;;;;-1.12;100.00;99789.16;5072768;28;20246;-66
2022/01/24 01:28:34;;;;;;;13.47;9.00;;;;;;;-1.10;100.00;99795.22;5059748;28;20208;-66
2022/01/24 01:31:06;;;;;;;11.27;8.27;;;;;;;-1.19;100.00;99787.38;5072728;28;20586;-66
2022/01/24 01:33:44;;;;;;;12.27;8.33;;;;;;;-1.18;100.00;99794.31;5072347;28;20281;-66
2022/01/24 01:36:16;;;;;;;14.57;8.80;;;;;;;-1.12;100.00;99789.16;5072555;28;20223;-66
2022/01/24 01:52:49;;;;;;;11.87;8.00;;;;;;;-1.24;100.00;99786.53;5072242;28;20270;-66
2022/01/24 01:55:26;;;;;;;10.83;7.77;;;;;;;-1.27;100.00;99795.16;5072571;28;20222;-66
2022/01/24 01:57:53;;;;;;;11.50;8.03;;;;;;;-1.29;100.00;99785.63;5072664;28;20260;-66
2022/01/24 02:00:20;;;;;;;13.47;8.77;;;;;;;-1.30;100.00;99786.50;5070801;28;20568;-66
2022/01/24 02:02:47;;;;;;;11.60;8.40;;;;;;;-1.30;100.00;99789.09;5070464;28;20227;-66
2022/01/24 02:05:15;;;;;;;11.60;7.73;;;;;;;-1.32;100.00;99785.59;5071658;28;20226;-66
2022/01/24 02:07:49;;;;;;;11.53;8.60;;;;;;;-1.34;100.00;99784.75;5072129;28;20211;-66
2022/01/24 02:10:16;;;;;;;10.93;7.97;;;;;;;-1.35;100.00;99785.63;5071826;28;20752;-66
2022/01/24 02:12:43;;;;;;;10.27;7.80;;;;;;;-1.41;100.00;99785.59;5072219;28;20211;-66
2022/01/24 02:15:11;;;;;;;14.00;8.50;;;;;;;-1.45;100.00;99783.81;5074192;28;20244;-66
2022/01/24 02:17:48;;;;;;;11.80;8.33;;;;;;;-1.51;100.00;99782.09;5075884;28;20211;-66
2022/01/24 02:20:38;;;;;;;12.20;8.40;;;;;;;-1.54;100.00;99789.00;5076068;28;20225;-66
2022/01/24 02:23:31;;;;;;;11.27;7.90;;;;;;;-1.54;100.00;99781.22;5075721;28;20210;-66
2022/01/24 02:26:00;;;;;;;12.60;8.27;;;;;;;-1.50;100.00;99769.97;5066010;28;20291;-66
2022/01/24 02:28:30;;;;;;;10.37;8.40;;;;;;;-1.48;100.00;99763.94;5074665;28;20230;-66
2022/01/24 02:31:07;;;;;;;12.07;8.40;;;;;;;-1.49;100.00;99762.22;5074669;28;20298;-66
2022/01/24 02:33:34;;;;;;;13.17;8.63;;;;;;;-1.57;100.00;99757.84;5063711;28;20339;-66
2022/01/24 02:36:00;;;;;;;11.13;7.60;;;;;;;-1.61;100.00;99761.31;5075505;28;20215;-66
2022/01/24 02:38:40;;;;;;;10.27;7.63;;;;;;;-1.65;100.00;99759.56;5075544;28;20226;-66
2022/01/24 02:49:27;;;;;;;11.30;8.37;;;;;;;-1.68;100.00;99759.50;5064918;28;20216;-66
2022/01/24 02:52:02;;;;;;;13.07;9.50;;;;;;;-1.67;100.00;99756.09;5075231;28;20214;-66
2022/01/24 02:54:32;;;;;;;12.07;9.10;;;;;;;-1.60;100.00;99761.28;5073893;28;20244;-66
2022/01/24 02:56:59;;;;;;;12.77;8.97;;;;;;;-1.54;100.00;99748.34;5074828;28;20302;-66
2022/01/24 02:59:26;;;;;;;10.93;8.57;;;;;;;-1.50;100.00;99751.81;5075109;28;20222;-66
2022/01/24 03:01:52;;;;;;;13.13;8.50;;;;;;;-1.44;100.00;99749.25;5075098;28;20222;-66
2022/01/24 03:04:19;;;;;;;12.37;8.73;;;;;;;-1.39;100.00;99744.97;5074929;28;20222;-66
2022/01/24 03:06:46;;;;;;;11.87;8.53;;;;;;;-1.34;100.00;99748.44;5074900;28;20225;-66
2022/01/24 03:09:14;;;;;;;12.43;9.10;;;;;;;-1.30;100.00;99747.59;5074646;28;20704;-66
2022/01/24 03:12:02;;;;;;;11.23;9.03;;;;;;;-1.26;100.00;99738.94;5074757;28;20217;-66
2022/01/24 03:14:31;;;;;;;14.43;8.97;;;;;;;-1.26;100.00;99738.94;5072893;28;20254;-66
2022/01/24 03:16:57;;;;;;;14.10;8.70;;;;;;;-1.21;100.00;99737.22;5074545;28;20223;-66
2022/01/24 03:19:24;;;;;;;13.07;8.57;;;;;;;-1.21;100.00;99737.22;5074519;28;20216;-66
2022/01/24 03:21:51;;;;;;;11.87;9.17;;;;;;;-1.24;100.00;99737.25;5072931;28;20223;-66
2022/01/24 03:24:18;;;;;;;15.97;12.00;;;;;;;-1.25;100.00;99736.38;5074501;28;20259;-66
2022/01/24 03:26:47;;;;;;;13.07;10.13;;;;;;;-1.20;100.00;99744.16;5073604;28;20706;-66
2022/01/24 03:29:13;;;;;;;13.87;9.57;;;;;;;-1.26;100.00;99738.94;5074602;28;20304;-66
2022/01/24 03:31:42;;;;;;;13.03;9.57;;;;;;;-1.24;100.00;99727.72;5074350;28;20222;-66
2022/01/24 03:34:09;;;;;;;13.83;9.33;;;;;;;-1.16;100.00;99740.72;5074500;28;20234;-66
2022/01/24 03:36:35;;;;;;;16.10;10.90;;;;;;;-1.12;100.00;99737.28;5074495;28;20222;-66
2022/01/24 03:39:03;;;;;;;12.60;9.70;;;;;;;-1.08;100.00;99739.00;5074457;28;20224;-66
2022/01/24 03:41:30;;;;;;;15.03;10.17;;;;;;;-1.04;100.00;99736.41;5074120;28;20220;-66
2022/01/24 03:44:03;;;;;;;14.50;9.80;;;;;;;-0.96;100.00;99737.31;5074297;28;20215;-66
2022/01/24 03:46:45;;;;;;;12.80;9.27;;;;;;;-0.92;100.00;99735.56;5073426;28;20753;-66
2022/01/24 03:49:44;;;;;;;14.37;9.73;;;;;;;-0.94;100.00;99742.47;5074187;28;20221;-66
2022/01/24 03:51:58;;;;;;;10.17;7.87;;;;;;;-1.00;100.00;99729.50;5073751;28;20628;-66
2022/01/24 03:54:25;;;;;;;12.77;8.87;;;;;;;-1.04;100.00;99727.78;5073916;28;20610;-66
2022/01/24 03:56:51;;;;;;;13.57;9.40;;;;;;;-1.05;100.00;99723.44;5073991;28;20211;-66
2022/01/24 03:59:19;;;;;;;13.90;9.30;;;;;;;-1.01;100.00;99725.16;5073556;28;20673;-66
2022/01/24 04:01:46;;;;;;;13.60;9.33;;;;;;;-1.04;100.00;99725.16;5073837;28;20225;-66
2022/01/24 04:04:12;;;;;;;12.93;9.73;;;;;;;-1.05;100.00;99728.63;5073892;28;20214;-66
2022/01/24 04:06:39;;;;;;;12.13;8.17;;;;;;;-1.09;100.00;99724.28;5073534;28;20246;-66
2022/01/24 04:09:06;;;;;;;13.80;9.63;;;;;;;-1.11;100.00;99733.81;5073416;28;20229;-66
2022/01/24 04:11:36;;;;;;;12.67;8.30;;;;;;;-1.05;100.00;99728.63;5073243;28;20696;-66
2022/01/24 04:14:24;;;;;;;13.60;9.50;;;;;;;-1.04;100.00;99730.38;5071606;28;20236;-66
2022/01/24 04:17:04;;;;;;;15.30;9.23;;;;;;;-1.02;100.00;99731.22;5073655;28;20222;-66
2022/01/24 04:21:19;;;;;;;14.60;9.60;;;;;;;-1.07;100.00;99722.56;5073041;28;20264;-66
2022/01/24 04:22:24;;;;;;;13.73;9.23;;;;;;;-1.08;100.00;99723.41;5073440;28;20673;-66
2022/01/24 04:24:58;;;;;;;12.63;9.40;;;;;;;-1.07;100.00;99726.03;5073528;28;20241;-66
2022/01/24 04:27:24;;;;;;;12.63;9.03;;;;;;;-1.00;100.00;99732.13;5073317;28;20300;-66
2022/01/24 04:29:51;;;;;;;13.70;9.40;;;;;;;-1.01;100.00;99725.16;5066121;28;20216;-66
2022/01/24 04:32:19;;;;;;;11.53;9.07;;;;;;;-1.05;100.00;99723.44;5067227;28;20219;-66
2022/01/24 04:34:46;;;;;;;12.80;9.30;;;;;;;-1.03;100.00;99721.72;5073051;28;20246;-66
2022/01/24 04:37:13;;;;;;;12.57;8.60;;;;;;;-1.06;100.00;99722.56;5072835;28;20234;-66
2022/01/24 04:39:40;;;;;;;16.30;9.67;;;;;;;-1.09;100.00;99727.75;5071728;28;20229;-66
2022/01/24 04:42:11;;;;;;;13.70;8.67;;;;;;;-1.04;100.00;99726.03;5073214;28;20224;-66
2022/01/24 04:45:07;;;;;;;13.90;9.53;;;;;;;-1.11;100.00;99716.50;5072750;28;20703;-66
2022/01/24 04:47:49;;;;;;;12.70;8.83;;;;;;;-1.14;100.00;99726.00;5063052;28;20219;-66
2022/01/24 04:50:39;;;;;;;14.07;9.87;;;;;;;-1.21;100.00;99727.75;5072769;28;20215;-66
2022/01/24 04:53:12;;;;;;;14.60;9.77;;;;;;;-1.19;100.00;99730.31;5059910;28;20215;-66
2022/01/24 04:55:39;;;;;;;14.43;10.00;;;;;;;-1.18;100.00;99726.88;5072628;28;20242;-66
2022/01/24 04:58:05;;;;;;;12.93;9.30;;;;;;;-1.19;100.00;99725.13;5072752;28;20211;-66
2022/01/24 05:00:32;;;;;;;12.13;9.00;;;;;;;-1.18;100.00;99729.47;5072849;28;20220;-66
2022/01/24 05:03:00;;;;;;;12.77;8.93;;;;;;;-1.16;100.00;99740.72;5073125;28;20698;-66
2022/01/24 05:05:28;;;;;;;13.60;10.00;;;;;;;-1.17;100.00;99744.16;5071366;28;20237;-66
2022/01/24 05:07:54;;;;;;;14.30;9.50;;;;;;;-1.14;100.00;99738.97;5072569;28;20272;-66
2022/01/24 05:10:28;;;;;;;13.90;9.60;;;;;;;-1.19;100.00;99738.97;5072593;28;20224;-66
2022/01/24 05:21:35;;;;;;;14.67;9.50;;;;;;;-1.38;100.00;99738.91;5072710;28;20220;-66
2022/01/24 05:24:01;;;;;;;16.43;10.40;;;;;;;-1.46;100.00;99740.63;5072445;28;20252;-66
2022/01/24 05:26:27;;;;;;;13.20;9.90;;;;;;;-1.41;100.00;99744.09;5072448;28;20222;-66
2022/01/24 05:28:54;;;;;;;13.60;8.93;;;;;;;-1.41;100.00;99737.16;5072700;28;20213;-66
2022/01/24 05:31:21;;;;;;;16.03;10.33;;;;;;;-1.40;100.00;99743.22;5071202;28;20593;-66
2022/01/24 05:33:49;;;;;;;15.67;11.10;;;;;;;-1.35;100.00;99750.16;5072502;28;20217;-66
2022/01/24 05:36:15;;;;;;;17.50;11.23;;;;;;;-1.33;100.00;99750.16;5072326;28;20759;-66
2022/01/24 05:38:42;;;;;;;19.17;12.20;;;;;;;-1.35;100.00;99750.16;5072493;28;20215;-66
2022/01/24 05:41:08;;;;;;;16.00;11.60;;;;;;;-1.24;100.00;99755.41;5072331;28;20211;-66
2022/01/24 05:43:36;;;;;;;18.10;12.07;;;;;;;-1.11;100.00;99757.16;5072254;28;20215;-66
2022/01/24 05:46:02;;;;;;;20.07;12.80;;;;;;;-0.95;100.00;99752.00;5060860;28;20211;-66
2022/01/24 05:48:29;;;;;;;21.20;13.47;;;;;;;-0.79;100.00;99752.88;5072657;28;20222;-66
2022/01/24 05:50:57;;;;;;;22.27;13.70;;;;;;;-0.64;100.00;99743.38;5076238;28;20223;-66
2022/01/24 05:53:23;;;;;;;22.40;14.47;;;;;;;-0.48;100.00;99739.06;5075998;28;20684;-66
2022/01/24 05:55:50;;;;;;;17.37;12.80;;;;;;;-0.39;100.00;99744.25;5076376;28;20242;-66
2022/01/24 05:58:16;;;;;;;18.47;12.70;;;;;;;-0.24;100.00;99739.03;5074564;28;20223;-66
2022/01/24 06:00:43;;;;;;;20.30;13.47;;;;;;;-0.18;100.00;99739.03;5075949;28;20219;-66
2022/01/24 06:03:09;;;;;;;18.43;13.27;;;;;;;-0.17;100.00;99740.75;5075940;28;20223;-66
2022/01/24 06:05:36;;;;;;;17.73;12.47;;;;;;;-0.17;100.00;99738.16;5076204;28;20211;-66
2022/01/24 06:08:04;;;;;;;18.03;12.20;;;;;;;-0.17;100.00;99737.28;5075900;28;20220;-66
2022/01/24 06:10:30;;;;;;;16.70;11.23;;;;;;;-0.22;100.00;99739.03;5076084;28;20219;-66
2022/01/24 06:12:57;;;;;;;16.53;11.23;;;;;;;-0.27;100.00;99745.09;5075675;28;20211;-66
2022/01/24 06:15:24;;;;;;;16.97;12.17;;;;;;;-0.20;100.00;99743.38;5075717;28;20239;-66
2022/01/24 06:17:50;;;;;;;17.10;12.10;;;;;;;-0.19;100.00;99758.94;5075880;28;20223;-66
2022/01/24 06:20:16;;;;;;;17.00;10.87;;;;;;;-0.18;100.00;99754.63;5075526;28;20218;-66
2022/01/24 06:22:43;;;;;;;15.50;11.30;;;;;;;-0.12;100.00;99753.75;5073913;28;20708;-66
2022/01/24 06:25:13;;;;;;;17.77;12.40;;;;;;;-0.08;100.00;99746.81;5075671;28;20251;-66
2022/01/24 06:27:39;;;;;;;16.97;11.00;;;;;;;-0.02;100.00;99755.47;5075614;28;20219;-66
2022/01/24 06:30:07;;;;;;;16.67;11.00;;;;;;;0.02;100.00;99754.59;5075771;28;20215;-66
2022/01/24 06:32:34;;;;;;;16.10;11.80;;;;;;;0.08;100.00;99759.75;5075435;28;20219;-66
2022/01/24 06:35:00;;;;;;;17.43;12.17;;;;;;;0.12;100.00;99761.50;5073245;28;20652;-66
2022/01/24 06:37:27;;;;;;;16.47;11.80;;;;;;;0.13;100.00;99752.84;5075532;28;20218;-66
2022/01/24 06:39:54;;;;;;;17.07;11.93;;;;;;;0.13;100.00;99752.84;5075441;28;20219;-66
2022/01/24 06:42:23;;;;;;;19.13;12.33;;;;;;;0.22;100.00;99758.03;5075038;28;20211;-66
2022/01/24 06:44:50;;;;;;;19.33;12.77;;;;;;;0.24;100.00;99760.59;5075119;28;20226;-66
2022/01/24 06:47:16;;;;;;;19.03;12.00;;;;;;;0.30;100.00;99758.84;5075338;28;20218;-66
2022/01/24 06:49:43;;;;;;;16.53;11.97;;;;;;;0.37;100.00;99760.56;5073480;28;20215;-66
2022/01/24 06:52:09;;;;;;;17.07;11.70;;;;;;;0.39;100.00;99766.63;5075252;28;20583;-66
2022/01/24 06:54:41;;;;;;;16.07;11.13;;;;;;;0.40;100.00;99768.38;5075073;28;20237;-66
2022/01/24 06:57:08;;;;;;;17.93;12.17;;;;;;;0.46;100.00;99772.69;5075294;28;20297;-66
2022/01/24 06:59:36;;;;;;;16.83;11.90;;;;;;;0.45;100.00;99764.00;5069355;28;20674;-66
2022/01/24 07:02:03;;;;;;;16.37;11.77;;;;;;;0.48;100.00;99771.81;5070328;28;20367;-66
2022/01/24 07:04:30;;;;;;;16.13;11.33;;;;;;;0.50;100.00;99780.47;5074630;28;20219;-66
2022/01/24 07:06:56;;;;;;;16.83;12.07;;;;;;;0.51;100.00;99781.34;5075057;28;20222;-66
2022/01/24 07:09:23;;;;;;;17.60;12.00;;;;;;;0.56;100.00;99785.63;5074719;28;20222;-66
2022/01/24 07:11:51;;;;;;;17.23;12.33;;;;;;;0.58;100.00;99789.13;5074829;28;20218;-66
2022/01/24 07:14:17;;;;;;;16.87;10.83;;;;;;;0.56;100.00;99784.78;5074415;28;20227;-66
2022/01/24 07:19:41;;;;;;;16.00;10.77;;;;;;;0.61;100.00;99789.09;5032363;28;20314;-66
2022/01/24 07:22:08;;;;;;;15.80;10.50;;;;;;;0.64;100.00;99789.09;5064121;28;20223;-66
2022/01/24 07:24:35;;;;;;;15.40;11.07;;;;;;;0.67;100.00;99796.00;5074605;28;20626;-66
2022/01/24 07:27:02;;;;;;;15.77;11.77;;;;;;;0.65;100.00;99801.22;5074546;28;20215;-66
2022/01/24 07:29:30;;;;;;;15.60;11.00;;;;;;;0.69;100.00;99808.13;5074597;28;20261;-66
2022/01/24 07:31:59;;;;;;;16.60;10.70;;;;;;;0.75;100.00;99802.91;5074152;28;20223;-66
2022/01/24 07:34:26;;;;;;;14.60;10.63;;;;;;;0.78;100.00;99805.53;5074142;28;20700;-66
2022/01/24 07:36:52;;;;;;;15.33;10.63;;;;;;;0.80;100.00;99806.38;5074255;28;20207;-66
2022/01/24 07:39:19;;;;;;;15.63;10.40;;;;;;;0.83;100.00;99806.38;5074131;28;20238;-66
2022/01/24 07:41:47;;;;;;;14.77;10.33;;;;;;;0.85;100.00;99807.22;5072426;28;20215;-66
2022/01/24 07:44:14;;;;;;;15.53;11.10;;;;;;;0.87;100.00;99818.47;5074213;28;20219;-66
2022/01/24 07:46:41;;;;;;;14.17;10.20;;;;;;;0.90;100.00;99815.88;5074287;28;20224;-66
2022/01/24 07:49:12;;;;;;;15.87;11.10;;;;;;;0.91;100.00;99814.13;5074211;28;20591;-66
2022/01/24 07:51:39;;;;;;;17.47;10.80;;;;;;;0.94;100.00;99829.75;5073625;28;20272;-66
2022/01/24 07:54:06;;;;;;;14.73;10.37;;;;;;;0.95;100.00;99832.34;5073946;28;20216;-66
2022/01/24 07:56:32;;;;;;;17.77;11.07;;;;;;;0.99;100.00;99833.19;5073505;28;20243;-66
2022/01/24 07:58:59;;;;;;;12.60;10.27;;;;;;;1.03;100.00;99835.78;5074052;28;20217;-66
2022/01/24 08:01:26;;;;;;;17.30;11.07;;;;;;;1.07;100.00;99831.41;5073894;28;20215;-66
2022/01/24 08:03:53;;;;;;;14.07;10.30;;;;;;;1.10;100.00;99842.69;5073875;28;20556;-66
2022/01/24 08:06:20;;;;;;;12.63;9.57;;;;;;;1.15;100.00;99837.44;5073374;28;20685;-66
2022/01/24 08:08:47;;;;;;;14.63;10.33;;;;;;;1.21;100.00;99824.38;5070669;28;20210;-66
2022/01/24 08:11:15;;;;;;;14.87;10.33;;;;;;;1.27;100.00;99835.66;5072058;28;20216;-66
2022/01/24 08:13:42;;;;;;;14.50;10.33;;;;;;;1.32;100.00;99839.09;5071621;28;20673;-66
2022/01/24 08:16:08;;;;;;;14.70;10.00;;;;;;;1.35;100.00;99833.88;5064661;28;20239;-66
2022/01/24 08:18:35;;;;;;;13.53;10.33;;;;;;;1.41;100.00;99841.63;5072511;28;20589;-66
2022/01/24 08:21:01;;;;;;;13.30;9.23;;;;;;;1.49;100.00;99833.78;5072121;28;20212;-66
2022/01/24 08:23:29;;;;;;;13.77;10.10;;;;;;;1.57;100.00;99840.69;5059064;28;20211;-66
2022/01/24 08:25:56;;;;;;;15.17;10.63;;;;;;;1.60;100.00;99830.22;5071857;28;20585;-66
2022/01/24 08:28:22;;;;;;;13.13;9.73;;;;;;;1.69;100.00;99821.47;5071914;28;20215;-66
2022/01/24 08:30:48;;;;;;;13.07;9.73;;;;;;;1.73;100.00;99821.44;5072128;28;20215;-66
2022/01/24 08:33:15;;;;;;;13.00;9.73;;;;;;;1.80;100.00;99817.94;5071099;28;20223;-66
2022/01/24 08:35:42;;;;;;;11.73;9.47;;;;;;;1.90;100.00;99816.97;5070973;28;20680;-65
2022/01/24 08:38:09;;;;;;;13.03;9.37;;;;;;;1.94;100.00;99816.06;5071789;28;20215;-64
2022/01/24 08:40:39;;;;;;;14.23;10.03;;;;;;;2.00;100.00;99813.41;5071697;28;20223;-64
2022/01/24 08:43:07;;;;;;;12.27;9.07;;;;;;;2.07;100.00;99812.47;5071903;28;20216;-64
2022/01/24 08:45:44;;;;;;;13.93;8.97;;;;;;;2.12;100.00;99817.63;5071652;28;20692;-65
2022/01/24 08:48:11;;;;;;;13.83;9.03;;;;;;;2.16;100.00;99828.06;5071716;28;20219;-64
2022/01/24 08:50:38;;;;;;;12.43;9.13;;;;;;;2.18;100.00;99821.06;5071554;28;20223;-64
2022/01/24 08:53:05;;;;;;;13.10;9.17;;;;;;;2.19;100.00;99820.19;5071896;28;20215;-64
2022/01/24 08:55:32;;;;;;;13.97;9.43;;;;;;;2.18;100.00;99831.50;5071474;28;20246;-64
2022/01/24 08:58:01;;;;;;;13.30;10.43;;;;;;;2.19;100.00;99822.78;5071519;28;20211;-64
2022/01/24 09:00:28;;;;;;;14.57;10.87;;;;;;;2.16;100.00;99824.56;5069749;28;20719;-63
2022/01/24 09:02:55;;;;;;;14.70;10.53;;;;;;;2.20;100.00;99823.69;5071814;28;20220;-64
2022/01/24 09:05:23;;;;;;;12.30;9.57;;;;;;;2.22;100.00;99817.56;5071646;28;20215;-64
2022/01/24 09:07:50;;;;;;;12.90;9.33;;;;;;;2.18;100.00;99820.19;5071441;28;20247;-64
2022/01/24 09:10:18;;;;;;;13.80;10.17;;;;;;;2.12;100.00;99821.13;5071406;28;20590;-64
2022/01/24 09:12:44;;;;;;;13.43;10.13;;;;;;;2.05;100.00;99822.06;5071520;28;20218;-64
2022/01/24 09:15:14;;;;;;;12.73;10.00;;;;;;;1.98;100.00;99827.34;5070897;28;20222;-63
2022/01/24 09:17:42;;;;;;;15.10;10.33;;;;;;;1.95;100.00;99823.00;5071423;28;20211;-64
2022/01/24 09:20:11;;;;;;;16.60;12.00;;;;;;;1.98;100.00;99830.81;5070890;28;20261;-65
2022/01/24 09:22:37;;;;;;;14.87;11.47;;;;;;;1.97;100.00;99834.28;5071361;28;20677;-64
2022/01/24 09:25:05;;;;;;;15.43;11.57;;;;;;;1.99;100.00;99836.88;5073458;28;20267;-64
2022/01/24 09:27:32;;;;;;;14.80;11.93;;;;;;;2.01;100.00;99828.16;5073634;28;20708;-64
2022/01/24 09:29:59;;;;;;;16.03;11.90;;;;;;;2.02;100.00;99829.91;5069434;28;20226;-64
2022/01/24 09:32:27;;;;;;;17.37;12.10;;;;;;;2.06;100.00;99829.00;5075556;28;20211;-64
2022/01/24 09:34:54;;;;;;;13.80;11.20;;;;;;;2.09;100.00;99826.34;5074027;28;20223;-65
2022/01/24 09:37:20;;;;;;;16.10;10.67;;;;;;;2.14;100.00;99816.75;5074101;28;20246;-64
2022/01/24 09:39:47;;;;;;;14.57;11.27;;;;;;;2.21;100.00;99821.03;5073028;28;20710;-64
2022/01/24 09:42:14;;;;;;;14.93;11.07;;;;;;;2.28;100.00;99825.31;5074350;28;20211;-64
2022/01/24 09:44:40;;;;;;;14.83;10.57;;;;;;;2.28;100.00;99817.47;5073659;28;20673;-65
2022/01/24 09:47:07;;;;;;;16.60;11.10;;;;;;;2.38;100.00;99821.72;5060650;28;20772;-65
2022/01/24 09:49:35;;;;;;;15.27;12.17;;;;;;;2.51;100.00;99820.72;5075122;28;20239;-65
2022/01/24 09:52:01;;;;;;;13.63;11.43;;;;;;;2.63;100.00;99831.03;5075187;28;20594;-65
2022/01/24 09:54:28;;;;;;;14.93;11.20;;;;;;;2.73;100.00;99831.78;5073571;28;20215;-65
2022/01/24 09:56:54;;;;;;;14.37;11.03;;;;;;;2.87;100.00;99825.53;5074672;28;20266;-65
2022/01/24 09:59:21;;;;;;;11.33;9.60;;;;;;;2.95;100.00;99828.91;5074732;28;20222;-66
2022/01/24 10:01:47;;;;;;;11.93;9.70;;;;;;;3.06;100.00;99832.25;5074880;28;20215;-65
2022/01/24 10:04:19;;;;;;;10.93;9.60;;;;;;;3.16;100.00;99825.16;5074876;28;20220;-66
2022/01/24 10:07:05;;;;;;;11.90;9.50;;;;;;;3.26;100.00;99834.63;5074683;28;20215;-65
2022/01/24 10:09:35;;;;;;;9.77;8.77;;;;;;;3.34;100.00;99823.19;5066308;28;20221;-65
2022/01/24 10:12:15;;;;;;;9.57;8.50;;;;;;;3.45;100.00;99826.53;5074332;28;20211;-64
2022/01/24 10:17:29;;;;;;;10.30;8.60;;;;;;;3.45;100.00;99829.13;5066912;28;20711;-66
2022/01/24 10:19:55;;;;;;;11.43;9.13;;;;;;;3.56;100.00;99824.59;5074252;28;20223;-66
2022/01/24 10:22:26;;;;;;;8.97;7.53;;;;;;;3.70;100.00;99827.88;5073527;28;20212;-66
2022/01/24 10:24:55;;;;;;;9.77;8.33;;;;;;;3.70;100.00;99811.31;5073942;28;20251;-66
2022/01/24 10:27:24;;;;;;;9.40;8.07;;;;;;;3.77;100.00;99816.44;5074303;28;20212;-66
2022/01/24 10:29:54;;;;;;;10.03;7.27;;;;;;;3.85;100.00;99811.09;5074342;28;20227;-66
2022/01/24 10:32:31;;;;;;;7.77;6.77;;;;;;;3.98;100.00;99808.25;5074162;28;20220;-65
2022/01/24 10:35:26;;;;;;;8.13;6.50;;;;;;;4.07;100.00;99800.25;5073060;28;20207;-66
2022/01/24 10:38:15;;;;;;;8.23;5.77;;;;;;;4.30;100.00;99794.63;5074157;28;20216;-66
2022/01/24 10:40:49;;;;;;;7.27;5.53;;;;;;;4.34;99.95;99791.91;5074254;28;20227;-66
2022/01/24 10:43:18;;;;;;;6.63;5.87;;;;;;;4.40;100.00;99790.94;5073904;28;20224;-66
2022/01/24 10:45:46;;;;;;;6.37;5.23;;;;;;;4.47;98.73;99792.56;5074162;28;20219;-66
2022/01/24 10:48:14;;;;;;;6.40;5.43;;;;;;;4.47;100.00;99792.56;5072472;28;20219;-66
2022/01/24 10:50:41;;;;;;;5.83;5.23;;;;;;;4.48;98.57;99779.44;5072677;28;20216;-66
2022/01/24 10:53:14;;;;;;;7.47;5.93;;;;;;;4.66;99.88;99783.47;5073931;28;20241;-66
2022/01/24 10:55:42;;;;;;;6.30;5.70;;;;;;;4.71;98.69;99785.06;5073438;28;20701;-65
2022/01/24 10:58:13;;;;;;;7.43;5.03;;;;;;;4.83;95.26;99774.34;5073487;28;20245;-66
2022/01/24 11:00:41;;;;;;;5.50;4.97;;;;;;;4.70;96.04;99775.50;5073911;28;20637;-66
2022/01/24 11:03:14;;;;;;;5.67;4.67;;;;;;;4.70;95.26;99778.13;5073747;28;20220;-65
2022/01/24 11:05:43;;;;;;;5.60;5.00;;;;;;;4.84;95.75;99770.84;5067784;28;20568;-66
2022/01/24 11:08:13;;;;;;;6.07;4.97;;;;;;;4.83;92.47;99770.88;5073573;28;20641;-66
2022/01/24 11:10:43;;;;;;;6.30;4.77;;;;;;;4.78;93.90;99771.00;5073678;28;20216;-66
2022/01/24 11:13:11;;;;;;;6.30;5.10;;;;;;;4.73;94.82;99770.22;5072189;28;20221;-66
2022/01/24 11:15:42;;;;;;;5.53;4.80;;;;;;;4.88;95.21;99772.50;5073327;28;20225;-67
2022/01/24 11:18:09;;;;;;;6.90;5.20;;;;;;;5.01;94.06;99768.72;5073424;28;20212;-66
2022/01/24 11:20:41;;;;;;;5.53;4.70;;;;;;;5.15;92.88;99769.31;5073473;28;20225;-66
2022/01/24 11:23:07;;;;;;;5.27;4.60;;;;;;;5.22;93.16;99765.66;5073402;28;20218;-66
2022/01/24 11:25:37;;;;;;;6.13;4.83;;;;;;;5.17;92.46;99759.66;5073482;28;20250;-66
2022/01/24 11:28:04;;;;;;;7.87;4.80;;;;;;;5.12;92.50;99764.13;5072016;28;20210;-66
2022/01/24 11:30:37;;;;;;;6.63;4.77;;;;;;;5.12;92.80;99769.38;5073263;28;20221;-66
2022/01/24 11:33:08;;;;;;;6.30;4.63;;;;;;;5.13;90.58;99760.59;5073353;28;20221;-66
2022/01/24 11:35:40;;;;;;;6.67;4.47;;;;;;;5.12;91.38;99753.66;5073256;28;20220;-67
2022/01/24 11:38:28;;;;;;;5.10;4.20;;;;;;;5.21;91.63;99758.72;5065348;28;20248;-66
2022/01/24 11:41:00;;;;;;;6.10;4.20;;;;;;;5.33;90.11;99753.19;5070809;28;20676;-66
2022/01/24 11:43:29;;;;;;;4.60;4.10;;;;;;;5.27;89.69;99753.31;5072600;28;20280;-67
2022/01/24 11:46:04;;;;;;;4.70;4.23;;;;;;;5.29;91.79;99755.88;5064861;28;20222;-67
2022/01/24 11:48:32;;;;;;;5.77;4.57;;;;;;;5.39;91.75;99753.06;5072276;28;20224;-66
2022/01/24 11:51:03;;;;;;;4.83;4.33;;;;;;;5.50;88.63;99756.25;5072640;28;20233;-66
2022/01/24 11:53:33;;;;;;;5.03;4.33;;;;;;;5.44;89.26;99756.41;5072510;28;20247;-67
2022/01/24 11:56:19;;;;;;;6.97;4.03;;;;;;;5.34;89.16;99744.41;5072680;28;20235;-69
2022/01/24 11:58:46;;;;;;;6.73;4.30;;;;;;;5.34;89.46;99744.41;5066444;28;20268;-66
2022/01/24 12:01:18;;;;;;;5.20;4.37;;;;;;;5.54;91.36;99750.06;5072587;28;20224;-66
2022/01/24 12:03:50;;;;;;;7.47;4.20;;;;;;;5.57;88.78;99739.47;5072601;28;20222;-66
2022/01/24 12:06:19;;;;;;;5.00;4.23;;;;;;;5.58;89.68;99738.59;5070874;28;20221;-66
2022/01/24 12:08:47;;;;;;;4.30;3.83;;;;;;;5.55;88.41;99728.16;5072455;28;20221;-67
2022/01/24 12:11:19;;;;;;;5.63;3.93;;;;;;;5.60;88.74;99736.78;5072301;28;20215;-68
2022/01/24 12:13:47;;;;;;;4.10;3.67;;;;;;;5.71;87.87;99729.53;5072101;28;20263;-66
2022/01/24 12:16:16;;;;;;;4.07;3.60;;;;;;;5.81;88.56;99724.97;5071868;28;20238;-67
2022/01/24 12:19:00;;;;;;;4.60;3.67;;;;;;;5.81;87.84;99725.78;5072307;28;20218;-67
2022/01/24 12:21:29;;;;;;;4.20;3.80;;;;;;;5.82;89.21;99727.53;5065554;28;20219;-66
2022/01/24 12:23:58;;;;;;;4.80;3.47;;;;;;;5.81;86.68;99720.56;5071809;28;20218;-67
2022/01/24 12:26:34;;;;;;;4.33;3.93;;;;;;;5.77;86.33;99718.88;5072275;28;20218;-66
2022/01/24 12:29:05;;;;;;;4.60;3.83;;;;;;;5.59;87.38;99716.72;5070999;28;20211;-67
2022/01/24 12:31:35;;;;;;;5.17;4.33;;;;;;;5.71;87.93;99724.28;5072150;28;20222;-67